Time;durP1;ratioP1;P1;durP2;ratioP2;P2;SDS_P1;SDS_P2;PMS_P1;PMS_P2;Temp;Humidity;BMP_temperature;BMP_pressure;BME280_temperature;BME280_humidity;BME280_pressure;Samples;Min_cycle;Max_cycle;Signal;HPM_P1;HPM_P2
2023/09/02 00:00:10;;;;;;;11.45;8.82;;;18.40;91.90;;;;;;4974628;28;20058;-77
2023/09/02 00:02:36;;;;;;;14.10;9.10;;;18.30;91.90;;;;;;4988981;28;20575;-77
2023/09/02 00:05:01;;;;;;;13.82;9.27;;;18.30;91.80;;;;;;4960767;28;20527;-78
2023/09/02 00:07:27;;;;;;;10.90;8.93;;;18.30;91.90;;;;;;4959089;28;20543;-77
2023/09/02 00:09:53;;;;;;;10.73;8.50;;;18.20;92.00;;;;;;4958682;28;20432;-78
2023/09/02 00:12:18;;;;;;;9.65;7.55;;;18.20;92.10;;;;;;4955386;28;20402;-78
2023/09/02 00:14:44;;;;;;;12.65;8.52;;;18.10;92.10;;;;;;4944371;28;20106;-76
2023/09/02 00:17:10;;;;;;;11.20;8.45;;;18.10;92.20;;;;;;4941582;28;20097;-76
2023/09/02 00:19:37;;;;;;;14.23;9.20;;;18.10;92.30;;;;;;4952233;28;20020;-76
2023/09/02 00:22:03;;;;;;;11.63;8.80;;;18.10;92.10;;;;;;4945403;28;20073;-76
2023/09/02 00:24:28;;;;;;;10.93;8.52;;;18.00;92.00;;;;;;4946946;28;20050;-76
2023/09/02 00:26:54;;;;;;;13.02;8.80;;;18.00;92.00;;;;;;4936861;28;20059;-76
2023/09/02 00:29:20;;;;;;;10.88;8.60;;;18.00;92.00;;;;;;4938151;28;20529;-77
2023/09/02 00:31:45;;;;;;;10.55;8.70;;;17.90;91.90;;;;;;4937296;28;20714;-76
2023/09/02 00:34:11;;;;;;;13.70;8.18;;;17.90;92.00;;;;;;4943784;28;20770;-76
2023/09/02 00:36:37;;;;;;;10.43;8.45;;;17.90;92.00;;;;;;4941883;28;20098;-77
2023/09/02 00:39:02;;;;;;;13.13;9.00;;;17.80;92.10;;;;;;4943177;28;20081;-78
2023/09/02 00:42:00;;;;;;;13.63;9.98;;;17.80;92.10;;;;;;4938487;28;20708;-77
2023/09/02 00:44:25;;;;;;;11.77;9.88;;;17.80;92.20;;;;;;4944606;28;20122;-76
2023/09/02 00:46:52;;;;;;;14.70;10.32;;;17.70;92.30;;;;;;4957953;28;20137;-76
2023/09/02 00:49:18;;;;;;;11.48;9.00;;;17.70;92.40;;;;;;4941395;28;20096;-78
2023/09/02 00:51:43;;;;;;;12.40;9.27;;;17.70;92.50;;;;;;4939481;28;20900;-76
2023/09/02 00:54:09;;;;;;;12.63;9.80;;;17.70;92.50;;;;;;4943035;28;20722;-76
2023/09/02 00:56:37;;;;;;;12.32;9.65;;;17.70;92.60;;;;;;4942682;28;20597;-76
2023/09/02 00:59:04;;;;;;;10.75;8.90;;;17.60;92.50;;;;;;5037405;28;20698;-76
2023/09/02 01:01:33;;;;;;;10.57;8.55;;;17.60;92.60;;;;;;5037595;28;20017;-77
2023/09/02 01:03:59;;;;;;;13.57;8.63;;;17.60;92.60;;;;;;4957409;28;20469;-77
2023/09/02 01:06:25;;;;;;;12.50;9.57;;;17.60;92.50;;;;;;4955015;28;20042;-76
2023/09/02 01:08:51;;;;;;;13.10;9.35;;;17.60;92.50;;;;;;4958451;28;20137;-77
2023/09/02 01:11:17;;;;;;;12.90;9.77;;;17.60;92.60;;;;;;4969143;28;20438;-76
2023/09/02 01:13:42;;;;;;;13.98;10.70;;;17.60;92.60;;;;;;4938241;28;20032;-77
2023/09/02 01:16:08;;;;;;;12.23;9.43;;;17.60;92.80;;;;;;4941473;28;20119;-78
2023/09/02 01:18:36;;;;;;;14.73;10.95;;;17.60;92.90;;;;;;4940567;28;20077;-77
2023/09/02 01:21:39;;;;;;;13.15;9.80;;;17.60;93.00;;;;;;4937992;28;20393;-77
2023/09/02 01:24:20;;;;;;;13.68;10.20;;;17.70;92.90;;;;;;4950948;28;20841;-76
2023/09/02 01:27:11;;;;;;;15.68;11.23;;;17.80;92.80;;;;;;4939249;28;20059;-77
2023/09/02 01:29:43;;;;;;;16.55;12.25;;;17.80;92.80;;;;;;4943521;28;20027;-77
2023/09/02 01:32:12;;;;;;;14.50;11.02;;;17.80;92.70;;;;;;4955405;28;20463;-78
2023/09/02 01:34:39;;;;;;;14.57;11.75;;;17.80;92.70;;;;;;4949008;28;20031;-77
2023/09/02 01:37:08;;;;;;;19.08;12.65;;;17.90;92.70;;;;;;4943248;28;20493;-77
2023/09/02 01:39:35;;;;;;;23.05;14.15;;;17.90;92.60;;;;;;4944674;28;20877;-77
2023/09/02 01:42:01;;;;;;;17.42;12.50;;;17.90;92.50;;;;;;4948747;28;20123;-77
2023/09/02 01:44:28;;;;;;;27.65;14.43;;;17.80;92.50;;;;;;4944097;28;20110;-77
2023/09/02 01:46:55;;;;;;;20.80;13.15;;;17.90;92.50;;;;;;4944853;28;20042;-77
2023/09/02 01:49:21;;;;;;;18.10;14.30;;;17.80;92.60;;;;;;4940048;28;20027;-78
2023/09/02 01:51:48;;;;;;;26.75;14.25;;;17.80;92.70;;;;;;4939390;28;20041;-77
2023/09/02 01:54:14;;;;;;;16.42;13.00;;;17.80;92.60;;;;;;4937892;28;21133;-78
2023/09/02 01:56:40;;;;;;;17.42;13.23;;;17.80;92.70;;;;;;4939194;28;20497;-77
2023/09/02 01:59:06;;;;;;;16.02;12.88;;;17.80;92.70;;;;;;4943401;28;20035;-77
2023/09/02 02:01:34;;;;;;;12.95;11.65;;;17.80;92.70;;;;;;4943610;28;20041;-76
2023/09/02 02:04:17;;;;;;;16.35;12.35;;;17.80;92.70;;;;;;4947267;28;20035;-78
2023/09/02 02:06:45;;;;;;;15.63;12.67;;;17.80;92.60;;;;;;4939578;28;20107;-76
2023/09/02 02:09:13;;;;;;;25.13;13.07;;;17.80;92.60;;;;;;4943398;28;20286;-76
2023/09/02 02:11:39;;;;;;;30.33;13.70;;;17.80;92.50;;;;;;4940837;28;20053;-77
2023/09/02 02:14:06;;;;;;;12.70;11.05;;;17.80;92.60;;;;;;4935300;28;20055;-76
2023/09/02 02:16:32;;;;;;;14.60;11.98;;;17.80;92.70;;;;;;4943302;28;20028;-76
2023/09/02 02:18:58;;;;;;;15.60;12.52;;;17.80;92.80;;;;;;4939255;28;20043;-76
2023/09/02 02:21:25;;;;;;;80.97;15.95;;;17.80;92.80;;;;;;4933213;28;20019;-77
2023/09/02 02:23:51;;;;;;;33.00;13.98;;;17.80;92.80;;;;;;4957780;28;20232;-76
2023/09/02 02:26:17;;;;;;;70.32;16.73;;;17.70;92.90;;;;;;4958067;28;20027;-76
2023/09/02 02:28:42;;;;;;;18.83;13.68;;;17.60;93.00;;;;;;4945710;28;20049;-77
2023/09/02 02:31:08;;;;;;;19.88;13.63;;;17.60;93.20;;;;;;4949527;28;20032;-76
2023/09/02 02:33:36;;;;;;;14.45;12.95;;;17.60;93.30;;;;;;4962929;28;20031;-76
2023/09/02 02:36:02;;;;;;;17.83;14.30;;;17.70;93.30;;;;;;4974003;28;20053;-76
2023/09/02 02:38:28;;;;;;;15.60;13.90;;;17.70;93.40;;;;;;4972107;28;20487;-77
2023/09/02 02:40:54;;;;;;;15.25;13.65;;;17.80;93.40;;;;;;4961158;28;20029;-76
2023/09/02 02:43:25;;;;;;;14.98;13.38;;;17.80;93.30;;;;;;4951351;28;20032;-76
2023/09/02 02:45:54;;;;;;;45.88;16.58;;;17.80;93.30;;;;;;4948714;28;20041;-75
2023/09/02 02:48:27;;;;;;;15.02;13.43;;;17.70;93.20;;;;;;4956687;28;20038;-76
2023/09/02 02:50:53;;;;;;;19.95;14.88;;;17.70;93.30;;;;;;4960135;28;20477;-76
2023/09/02 02:53:18;;;;;;;16.20;14.50;;;17.70;93.40;;;;;;5019538;28;20047;-76
2023/09/02 02:55:44;;;;;;;15.48;12.95;;;17.70;93.50;;;;;;5044596;28;20057;-76
2023/09/02 02:58:12;;;;;;;18.20;14.80;;;17.80;93.60;;;;;;5040676;28;20479;-76
2023/09/02 03:00:39;;;;;;;21.15;15.68;;;17.80;93.50;;;;;;5042120;28;20392;-76
2023/09/02 03:03:05;;;;;;;14.88;12.90;;;17.80;93.50;;;;;;4979487;28;20032;-76
2023/09/02 03:05:36;;;;;;;17.50;15.32;;;17.80;93.50;;;;;;4955060;28;20039;-77
2023/09/02 03:08:02;;;;;;;16.50;13.48;;;17.80;93.60;;;;;;4956751;28;20573;-76
2023/09/02 03:10:28;;;;;;;15.82;14.23;;;17.80;93.60;;;;;;4939533;28;20015;-76
2023/09/02 03:12:53;;;;;;;16.65;13.30;;;17.80;93.60;;;;;;4943129;28;20042;-78
2023/09/02 03:15:19;;;;;;;14.38;12.88;;;17.80;93.60;;;;;;4942057;28;20067;-78
2023/09/02 03:17:45;;;;;;;13.75;12.35;;;17.80;93.60;;;;;;4941322;28;20039;-78
2023/09/02 03:20:11;;;;;;;13.80;11.73;;;17.80;93.60;;;;;;4939203;28;20035;-77
2023/09/02 03:22:41;;;;;;;15.98;12.88;;;17.80;93.60;;;;;;4940736;28;20481;-77
2023/09/02 03:25:07;;;;;;;13.85;12.25;;;17.90;93.60;;;;;;4938946;28;20520;-78
2023/09/02 03:27:39;;;;;;;13.13;11.73;;;17.90;93.60;;;;;;4936873;28;20054;-78
2023/09/02 03:30:07;;;;;;;12.52;10.98;;;17.80;93.60;;;;;;4938454;28;20059;-77
2023/09/02 03:32:34;;;;;;;13.18;11.77;;;17.90;93.50;;;;;;4938446;28;20043;-77
2023/09/02 03:34:59;;;;;;;12.30;11.00;;;17.80;93.50;;;;;;4942657;28;20031;-77
2023/09/02 03:37:26;;;;;;;11.75;10.55;;;17.80;93.50;;;;;;4939943;28;20051;-78
2023/09/02 03:39:53;;;;;;;12.32;10.90;;;17.80;93.50;;;;;;4939147;28;20035;-77
2023/09/02 03:42:19;;;;;;;12.70;11.13;;;17.80;93.50;;;;;;4956217;28;20521;-77
2023/09/02 03:44:45;;;;;;;13.00;11.32;;;17.80;93.60;;;;;;4936688;28;20472;-77
2023/09/02 03:47:11;;;;;;;12.88;11.57;;;17.80;93.50;;;;;;4939914;28;20036;-79
2023/09/02 03:49:36;;;;;;;11.27;10.05;;;17.80;93.50;;;;;;4934506;28;20035;-78
2023/09/02 03:52:02;;;;;;;15.25;13.20;;;17.80;93.50;;;;;;4938363;28;20689;-78
2023/09/02 03:54:28;;;;;;;14.10;12.60;;;17.80;93.50;;;;;;4939487;28;20112;-77
2023/09/02 03:56:53;;;;;;;15.75;13.55;;;17.70;93.30;;;;;;4935061;28;20176;-77
2023/09/02 03:59:19;;;;;;;13.18;11.07;;;17.60;93.30;;;;;;4936135;28;20067;-77
2023/09/02 04:01:45;;;;;;;14.05;11.80;;;17.60;93.30;;;;;;4946619;28;20058;-77
2023/09/02 04:04:11;;;;;;;13.43;11.93;;;17.50;93.40;;;;;;4943482;28;20369;-77
2023/09/02 04:06:38;;;;;;;16.63;12.63;;;17.50;93.40;;;;;;4936754;28;20046;-77
2023/09/02 04:09:07;;;;;;;13.05;11.63;;;17.40;93.50;;;;;;4950120;28;20172;-77
2023/09/02 04:11:33;;;;;;;12.45;11.15;;;17.40;93.50;;;;;;4946203;28;20020;-77
2023/09/02 04:13:59;;;;;;;12.27;10.48;;;17.40;93.50;;;;;;4941776;28;20031;-77
2023/09/02 04:16:25;;;;;;;12.18;10.57;;;17.30;93.50;;;;;;4943247;28;20544;-77
2023/09/02 04:18:51;;;;;;;11.63;10.43;;;17.30;93.50;;;;;;4944214;28;20051;-78
2023/09/02 04:21:17;;;;;;;11.73;9.82;;;17.30;93.50;;;;;;4944679;28;20023;-77
2023/09/02 04:23:43;;;;;;;13.00;11.00;;;17.30;93.50;;;;;;4942096;28;20497;-76
2023/09/02 04:26:09;;;;;;;11.48;9.50;;;17.20;93.50;;;;;;4941498;28;20401;-76
2023/09/02 04:28:35;;;;;;;11.35;10.02;;;17.20;93.40;;;;;;4954646;28;20044;-77
2023/09/02 04:31:01;;;;;;;10.60;9.50;;;17.20;93.40;;;;;;4945756;28;20162;-77
2023/09/02 04:33:27;;;;;;;11.52;9.65;;;17.10;93.30;;;;;;4937221;28;20034;-78
2023/09/02 04:35:53;;;;;;;11.38;10.18;;;17.10;93.40;;;;;;4940852;28;20615;-77
2023/09/02 04:38:19;;;;;;;12.05;10.43;;;17.10;93.40;;;;;;4939458;28;20063;-76
2023/09/02 04:40:45;;;;;;;12.13;10.43;;;17.10;93.30;;;;;;4941974;28;20023;-77
2023/09/02 04:43:12;;;;;;;12.05;10.07;;;17.10;93.30;;;;;;4940767;28;20043;-76
2023/09/02 04:45:39;;;;;;;13.77;11.48;;;17.10;93.30;;;;;;4941241;28;20034;-78
2023/09/02 04:48:06;;;;;;;12.90;11.50;;;17.20;93.30;;;;;;4940745;28;20047;-77
2023/09/02 04:50:33;;;;;;;13.07;11.48;;;17.20;93.20;;;;;;4940445;28;20550;-76
2023/09/02 04:53:00;;;;;;;13.43;11.20;;;17.20;93.20;;;;;;4942313;28;20118;-77
2023/09/02 04:55:26;;;;;;;13.82;11.70;;;17.30;93.30;;;;;;4937424;28;20026;-77
2023/09/02 04:57:52;;;;;;;14.18;12.60;;;17.30;93.40;;;;;;4937647;28;20051;-77
2023/09/02 05:00:19;;;;;;;14.45;11.73;;;17.30;93.30;;;;;;4943717;28;20032;-76
2023/09/02 05:02:46;;;;;;;17.35;12.95;;;17.30;93.30;;;;;;4937840;28;20074;-77
2023/09/02 05:05:14;;;;;;;14.52;11.98;;;17.30;93.30;;;;;;4940623;28;20051;-77
2023/09/02 05:07:40;;;;;;;17.23;12.93;;;17.40;93.40;;;;;;4937728;28;20039;-76
2023/09/02 05:10:06;;;;;;;16.80;13.27;;;17.40;93.50;;;;;;4942130;28;20024;-76
2023/09/02 05:12:33;;;;;;;16.85;14.20;;;17.50;93.50;;;;;;4938303;28;20533;-77
2023/09/02 05:14:59;;;;;;;19.70;15.23;;;17.50;93.50;;;;;;4942807;28;20027;-76
2023/09/02 05:17:25;;;;;;;17.55;14.20;;;17.40;93.50;;;;;;4943342;28;20051;-77
2023/09/02 05:19:51;;;;;;;17.45;14.27;;;17.50;93.50;;;;;;4940478;28;20035;-77
2023/09/02 05:22:17;;;;;;;16.45;12.52;;;17.50;93.50;;;;;;4940211;28;20096;-76
2023/09/02 05:24:43;;;;;;;16.77;14.43;;;17.50;93.60;;;;;;4933908;28;20044;-77
2023/09/02 05:27:08;;;;;;;15.25;13.63;;;17.50;93.60;;;;;;4937166;28;20070;-78
2023/09/02 05:29:34;;;;;;;16.48;14.35;;;17.50;93.60;;;;;;4939156;28;20717;-77
2023/09/02 05:32:00;;;;;;;16.73;14.70;;;17.60;93.50;;;;;;4935282;28;20465;-77
2023/09/02 05:34:25;;;;;;;16.00;13.93;;;17.50;93.40;;;;;;4929401;28;20085;-76
2023/09/02 05:36:51;;;;;;;16.40;14.13;;;17.60;93.40;;;;;;4940353;28;20124;-76
2023/09/02 05:39:16;;;;;;;20.02;15.75;;;17.60;93.40;;;;;;4946810;28;20039;-78
2023/09/02 05:41:44;;;;;;;17.25;14.18;;;17.60;93.30;;;;;;4944830;28;20470;-76
2023/09/02 05:44:09;;;;;;;17.35;14.82;;;17.60;93.40;;;;;;4937535;29;20031;-76
2023/09/02 05:46:35;;;;;;;16.15;14.40;;;17.70;93.40;;;;;;4940633;28;20027;-76
2023/09/02 05:49:01;;;;;;;14.07;12.18;;;17.70;93.30;;;;;;4939293;28;20452;-77
2023/09/02 05:51:28;;;;;;;15.93;14.25;;;17.70;93.30;;;;;;4939839;28;20836;-77
2023/09/02 05:53:54;;;;;;;17.73;15.85;;;17.80;93.40;;;;;;4938518;28;20066;-77
2023/09/02 05:56:19;;;;;;;16.63;13.75;;;17.80;93.40;;;;;;4940535;28;20445;-76
2023/09/02 05:58:45;;;;;;;15.15;13.55;;;17.80;93.30;;;;;;4936001;28;20054;-77
2023/09/02 06:01:11;;;;;;;14.98;13.32;;;17.90;93.20;;;;;;4940490;28;20108;-77
2023/09/02 06:03:37;;;;;;;14.55;12.98;;;17.90;93.10;;;;;;4941247;28;20035;-77
2023/09/02 06:06:12;;;;;;;15.77;13.63;;;17.90;93.20;;;;;;4941714;28;20036;-77
2023/09/02 06:08:38;;;;;;;16.92;14.52;;;17.90;93.30;;;;;;4943321;28;20043;-78
2023/09/02 06:11:04;;;;;;;16.55;14.75;;;18.00;93.20;;;;;;4937439;28;20048;-77
2023/09/02 06:13:30;;;;;;;17.65;15.18;;;18.10;93.10;;;;;;4936976;28;20763;-77
2023/09/02 06:16:03;;;;;;;17.42;15.50;;;18.10;93.20;;;;;;4938486;28;20042;-76
2023/09/02 06:18:30;;;;;;;17.08;15.30;;;18.20;93.20;;;;;;4939098;28;20132;-77
2023/09/02 06:20:56;;;;;;;16.67;14.40;;;18.20;93.20;;;;;;5040249;28;20391;-76
2023/09/02 06:23:25;;;;;;;16.98;15.25;;;18.30;93.10;;;;;;4942982;28;20465;-76
2023/09/02 06:25:58;;;;;;;18.90;15.55;;;18.30;93.10;;;;;;4936620;28;20193;-75
2023/09/02 06:28:24;;;;;;;16.70;15.05;;;18.40;93.00;;;;;;4938577;28;20054;-76
2023/09/02 06:30:49;;;;;;;19.67;17.15;;;18.50;92.90;;;;;;4940499;28;20028;-76
2023/09/02 06:33:16;;;;;;;21.20;18.60;;;18.40;92.50;;;;;;4939743;28;20038;-75
2023/09/02 06:35:42;;;;;;;19.15;17.15;;;18.40;92.50;;;;;;4939815;28;20057;-74
2023/09/02 06:38:08;;;;;;;20.63;18.42;;;18.50;92.50;;;;;;4945133;28;20035;-75
2023/09/02 06:40:33;;;;;;;19.85;16.60;;;18.50;92.40;;;;;;4948870;28;20487;-73
2023/09/02 06:42:59;;;;;;;22.27;19.98;;;18.60;92.40;;;;;;4940834;28;20445;-76
2023/09/02 06:45:28;;;;;;;24.20;20.25;;;18.60;92.30;;;;;;4939851;28;20031;-76
2023/09/02 06:47:53;;;;;;;24.20;21.30;;;18.60;92.40;;;;;;4939752;28;20079;-78
2023/09/02 06:50:19;;;;;;;23.77;21.27;;;18.70;92.40;;;;;;4943624;28;20047;-75
2023/09/02 06:52:45;;;;;;;26.13;23.30;;;18.70;92.30;;;;;;4942029;28;20289;-73
2023/09/02 06:55:11;;;;;;;28.35;22.73;;;18.70;92.30;;;;;;4940712;28;20464;-75
2023/09/02 06:57:42;;;;;;;27.17;23.77;;;18.70;92.30;;;;;;4948169;28;20043;-75
2023/09/02 07:00:09;;;;;;;25.67;22.25;;;18.70;92.30;;;;;;4941615;28;20069;-76
2023/09/02 07:02:34;;;;;;;30.00;25.55;;;18.80;92.40;;;;;;4939564;28;20035;-75
2023/09/02 07:05:00;;;;;;;28.67;24.70;;;18.70;92.20;;;;;;4940945;28;20039;-75
2023/09/02 07:07:26;;;;;;;29.20;25.27;;;18.70;92.20;;;;;;4939413;28;20051;-77
2023/09/02 07:09:52;;;;;;;29.92;25.45;;;18.70;92.20;;;;;;4938394;28;20134;-75
2023/09/02 07:12:18;;;;;;;29.52;25.25;;;18.80;92.30;;;;;;4938409;28;20039;-75
2023/09/02 07:14:43;;;;;;;33.92;28.13;;;18.80;92.30;;;;;;4942249;28;20031;-76
2023/09/02 07:17:09;;;;;;;31.98;25.83;;;18.90;92.30;;;;;;4944625;28;20672;-76
2023/09/02 07:19:35;;;;;;;36.42;29.88;;;18.90;92.20;;;;;;4939501;28;20027;-75
2023/09/02 07:22:00;;;;;;;35.47;29.88;;;19.00;92.20;;;;;;4940910;28;20031;-76
2023/09/02 07:24:26;;;;;;;32.95;28.92;;;19.10;92.00;;;;;;4938938;28;20080;-75
2023/09/02 07:26:52;;;;;;;35.90;29.95;;;19.10;91.70;;;;;;4939017;28;20393;-74
2023/09/02 07:29:17;;;;;;;32.53;27.38;;;19.20;91.50;;;;;;4938767;28;20027;-76
2023/09/02 07:31:43;;;;;;;32.75;29.10;;;19.30;91.40;;;;;;4939581;28;20730;-76
2023/09/02 07:34:09;;;;;;;30.70;27.42;;;19.50;91.50;;;;;;4936420;28;20154;-75
2023/09/02 07:36:35;;;;;;;28.52;25.48;;;19.50;90.90;;;;;;4950344;28;20035;-74
2023/09/02 07:39:00;;;;;;;35.33;29.95;;;19.60;91.10;;;;;;4942023;28;20031;-76
2023/09/02 07:41:26;;;;;;;34.30;30.05;;;19.60;90.30;;;;;;4939923;28;20023;-75
2023/09/02 07:43:52;;;;;;;33.58;29.52;;;19.60;89.70;;;;;;4938153;28;20512;-75
2023/09/02 07:46:17;;;;;;;33.30;29.63;;;19.60;89.90;;;;;;4941025;28;20027;-75
2023/09/02 07:48:44;;;;;;;30.77;27.48;;;19.80;90.20;;;;;;4940409;28;20105;-76
2023/09/02 07:51:11;;;;;;;32.75;29.25;;;19.80;90.10;;;;;;4932822;28;20035;-75
2023/09/02 07:53:37;;;;;;;34.08;30.10;;;20.00;90.10;;;;;;4938515;28;20047;-75
2023/09/02 07:56:03;;;;;;;36.45;30.73;;;20.20;90.20;;;;;;4936830;28;20404;-76
2023/09/02 07:58:28;;;;;;;34.97;30.50;;;20.40;89.10;;;;;;4941536;28;20055;-74
2023/09/02 08:00:57;;;;;;;30.75;27.27;;;20.50;88.80;;;;;;4936705;28;20039;-75
2023/09/02 08:03:23;;;;;;;35.10;31.20;;;20.40;88.40;;;;;;4945680;28;20039;-74
2023/09/02 08:05:49;;;;;;;34.20;28.75;;;20.60;87.80;;;;;;4955808;28;20023;-76
2023/09/02 08:08:14;;;;;;;33.20;29.58;;;20.60;88.10;;;;;;4961096;28;20038;-76
2023/09/02 08:10:40;;;;;;;31.35;27.95;;;20.70;87.70;;;;;;4952763;28;20464;-73
2023/09/02 08:13:06;;;;;;;34.22;30.33;;;20.80;87.70;;;;;;4937569;28;20046;-74
2023/09/02 08:15:32;;;;;;;45.08;37.15;;;20.70;86.80;;;;;;4934673;28;20032;-72
2023/09/02 08:17:58;;;;;;;48.53;39.97;;;20.70;86.90;;;;;;4938682;28;20201;-74
2023/09/02 08:20:25;;;;;;;51.47;42.17;;;20.70;87.00;;;;;;4937989;28;20053;-75
2023/09/02 08:22:51;;;;;;;57.80;43.17;;;20.70;87.20;;;;;;4934247;28;20028;-78
2023/09/02 08:25:16;;;;;;;51.25;41.67;;;20.60;87.30;;;;;;4937326;28;20089;-76
2023/09/02 08:27:46;;;;;;;50.42;40.90;;;20.60;87.60;;;;;;4932775;28;20059;-77
2023/09/02 08:30:12;;;;;;;48.53;39.75;;;20.60;87.70;;;;;;4935479;28;20081;-76
2023/09/02 08:32:38;;;;;;;49.55;39.67;;;20.60;87.70;;;;;;4934211;28;20028;-75
2023/09/02 08:35:05;;;;;;;46.47;39.55;;;20.70;88.00;;;;;;4935029;28;20105;-77
2023/09/02 08:37:31;;;;;;;42.95;36.47;;;20.90;87.90;;;;;;4936961;28;20154;-80
2023/09/02 08:39:57;;;;;;;45.78;36.13;;;21.00;87.60;;;;;;4933571;28;20092;-77
2023/09/02 08:42:24;;;;;;;41.42;36.53;;;21.30;86.80;;;;;;4938395;28;20567;-76
2023/09/02 08:44:51;;;;;;;42.67;36.08;;;21.60;85.80;;;;;;4935927;28;20027;-77
2023/09/02 08:47:17;;;;;;;39.78;34.80;;;21.90;85.20;;;;;;4938645;28;20039;-77
2023/09/02 08:49:43;;;;;;;37.97;33.80;;;22.00;84.00;;;;;;4935149;28;20023;-79
2023/09/02 08:52:10;;;;;;;40.22;35.20;;;22.20;83.50;;;;;;4938312;28;20047;-78
2023/09/02 08:54:37;;;;;;;38.08;32.85;;;22.60;82.60;;;;;;4930853;28;20027;-78
2023/09/02 08:57:03;;;;;;;38.20;34.13;;;22.80;81.90;;;;;;4932265;28;20035;-78
2023/09/02 08:59:29;;;;;;;39.80;35.50;;;22.40;81.40;;;;;;4939875;28;20027;-79
2023/09/02 09:01:56;;;;;;;40.30;35.88;;;22.20;83.10;;;;;;4939229;28;20401;-77
2023/09/02 09:04:22;;;;;;;41.78;35.97;;;22.30;83.20;;;;;;4938439;28;20027;-79
2023/09/02 09:06:48;;;;;;;40.63;36.42;;;22.50;83.10;;;;;;4940173;28;20114;-79
2023/09/02 09:09:17;;;;;;;40.95;36.63;;;22.70;82.70;;;;;;4937283;28;20019;-80
2023/09/02 09:11:43;;;;;;;41.63;35.92;;;22.70;81.60;;;;;;4939692;28;20038;-80
2023/09/02 09:14:16;;;;;;;40.08;35.10;;;22.30;82.30;;;;;;4941278;28;20040;-77
2023/09/02 09:16:43;;;;;;;38.95;34.33;;;22.50;83.20;;;;;;4960232;28;20027;-76
2023/09/02 09:19:09;;;;;;;37.80;33.70;;;22.80;81.70;;;;;;4938075;28;20031;-80
2023/09/02 09:21:35;;;;;;;39.38;34.92;;;22.70;81.00;;;;;;4941928;28;20638;-81
2023/09/02 09:24:02;;;;;;;40.47;36.17;;;22.80;80.90;;;;;;4936980;28;20448;-79
2023/09/02 09:26:30;;;;;;;37.95;33.88;;;22.80;81.30;;;;;;4932604;28;20052;-81
2023/09/02 09:28:59;;;;;;;35.70;31.80;;;23.00;80.70;;;;;;4930305;28;20131;-82
2023/09/02 09:31:26;;;;;;;37.25;32.90;;;22.80;79.70;;;;;;4932655;28;20059;-77
2023/09/02 09:33:54;;;;;;;37.35;33.33;;;22.80;81.80;;;;;;4931677;28;20031;-80
2023/09/02 09:36:23;;;;;;;39.60;35.28;;;23.40;80.40;;;;;;4934545;28;20024;-80
2023/09/02 09:38:53;;;;;;;39.03;33.85;;;23.50;78.10;;;;;;4934244;28;20039;-78
2023/09/02 09:41:18;;;;;;;36.40;32.47;;;23.40;79.20;;;;;;4938092;28;20031;-82
2023/09/02 09:43:44;;;;;;;41.45;33.30;;;23.50;78.90;;;;;;4938884;28;20027;-78
2023/09/02 09:46:15;;;;;;;36.33;32.40;;;23.30;79.00;;;;;;4937899;28;20054;-81
2023/09/02 09:48:48;;;;;;;37.80;33.63;;;23.00;80.10;;;;;;4933741;28;20541;-80
2023/09/02 09:51:23;;;;;;;34.95;31.15;;;23.20;79.40;;;;;;4935686;28;20024;-80
2023/09/02 09:53:49;;;;;;;39.67;34.25;;;23.30;79.40;;;;;;4931654;28;20533;-80
2023/09/02 09:56:15;;;;;;;38.17;34.08;;;23.90;78.80;;;;;;4937345;28;20022;-79
2023/09/02 09:58:40;;;;;;;36.50;32.65;;;24.30;77.10;;;;;;4941569;28;20031;-79
2023/09/02 10:01:08;;;;;;;34.90;30.85;;;24.50;75.10;;;;;;4938555;28;20478;-80
2023/09/02 10:03:34;;;;;;;34.45;30.70;;;24.90;75.50;;;;;;4934134;28;20043;-80
2023/09/02 10:06:01;;;;;;;32.92;29.45;;;24.80;75.50;;;;;;4940442;28;20385;-80
2023/09/02 10:08:27;;;;;;;31.55;28.27;;;24.60;75.10;;;;;;4941915;28;20501;-79
2023/09/02 10:10:52;;;;;;;35.50;31.80;;;24.80;75.20;;;;;;4942799;28;20031;-78
2023/09/02 10:13:19;;;;;;;32.15;28.70;;;24.70;75.50;;;;;;4942219;28;20031;-78
2023/09/02 10:15:46;;;;;;;29.48;26.27;;;24.90;74.20;;;;;;4937193;28;20043;-78
2023/09/02 10:18:12;;;;;;;28.35;25.38;;;24.90;74.30;;;;;;4937685;28;20712;-78
2023/09/02 10:20:39;;;;;;;31.27;27.98;;;25.00;74.50;;;;;;4940138;28;20684;-79
2023/09/02 10:23:09;;;;;;;30.52;27.42;;;24.80;73.90;;;;;;4932940;28;20522;-79
2023/09/02 10:26:00;;;;;;;30.25;27.08;;;24.40;75.30;;;;;;4942234;28;20500;-78
2023/09/02 10:28:38;;;;;;;29.20;26.13;;;24.20;75.80;;;;;;4935976;28;20047;-78
2023/09/02 10:31:12;;;;;;;27.45;24.02;;;24.30;76.40;;;;;;4934126;28;20647;-76
2023/09/02 10:33:49;;;;;;;31.65;28.27;;;24.60;76.90;;;;;;4940333;28;20039;-80
2023/09/02 10:36:21;;;;;;;30.15;26.85;;;24.90;73.90;;;;;;4941700;28;20035;-78
2023/09/02 10:38:51;;;;;;;31.58;28.23;;;24.60;75.50;;;;;;4935416;28;20034;-79
2023/09/02 10:41:17;;;;;;;30.85;27.45;;;24.60;74.60;;;;;;4935580;28;20042;-79
2023/09/02 10:43:45;;;;;;;25.00;22.40;;;25.00;73.50;;;;;;4954112;28;20078;-79
2023/09/02 10:46:11;;;;;;;26.90;21.60;;;24.80;73.50;;;;;;4939180;28;20034;-78
2023/09/02 10:48:40;;;;;;;24.48;21.38;;;24.90;73.40;;;;;;4942349;28;20035;-77
2023/09/02 10:51:07;;;;;;;26.95;24.08;;;25.20;71.90;;;;;;4943316;28;20027;-77
2023/09/02 10:53:48;;;;;;;28.65;24.85;;;25.70;71.90;;;;;;4941971;28;20047;-77
2023/09/02 10:56:36;;;;;;;26.55;23.17;;;25.80;71.10;;;;;;4938270;28;20505;-78
2023/09/02 10:59:06;;;;;;;24.63;20.50;;;25.60;71.20;;;;;;4962386;28;20043;-77
2023/09/02 11:01:48;;;;;;;22.85;19.15;;;25.30;71.20;;;;;;4955659;28;20039;-75
2023/09/02 11:04:34;;;;;;;19.45;16.30;;;25.60;70.30;;;;;;4963580;28;20599;-77
2023/09/02 11:07:22;;;;;;;17.38;14.52;;;25.90;70.20;;;;;;4951508;28;20155;-76
2023/09/02 11:09:58;;;;;;;15.27;12.48;;;26.00;67.10;;;;;;4953974;28;20782;-78
2023/09/02 11:12:24;;;;;;;18.13;13.98;;;26.10;66.00;;;;;;4956016;28;20045;-77
2023/09/02 11:15:09;;;;;;;21.45;17.30;;;26.20;66.20;;;;;;4972856;28;20049;-76
2023/09/02 11:17:41;;;;;;;;;;;26.20;67.50;;;;;;4954552;28;20061;-76
2023/09/02 11:20:15;;;;;;;22.27;18.70;;;26.30;67.00;;;;;;4955270;28;19922;-76
2023/09/02 11:23:09;;;;;;;21.40;17.92;;;25.90;67.90;;;;;;4953384;28;20050;-76
2023/09/02 11:25:37;;;;;;;18.90;16.38;;;25.20;69.60;;;;;;4950450;28;20046;-76
2023/09/02 11:28:27;;;;;;;18.38;14.38;;;25.10;70.00;;;;;;4956277;28;20059;-76
2023/09/02 11:31:12;;;;;;;13.88;11.13;;;25.20;71.40;;;;;;4952996;28;20100;-77
2023/09/02 11:33:46;;;;;;;13.55;8.82;;;25.60;69.30;;;;;;4951661;28;20118;-76
2023/09/02 11:36:17;;;;;;;16.63;12.75;;;26.00;67.90;;;;;;4954100;28;20031;-76
2023/09/02 11:38:43;;;;;;;25.73;22.13;;;26.10;66.80;;;;;;4957222;28;20603;-76
2023/09/02 11:41:09;;;;;;;25.38;22.50;;;26.50;67.80;;;;;;4951619;28;20027;-75
2023/09/02 11:43:36;;;;;;;27.42;23.42;;;26.70;68.30;;;;;;4954246;28;20047;-75
2023/09/02 11:46:03;;;;;;;25.88;23.08;;;26.30;67.50;;;;;;4964561;28;20031;-77
2023/09/02 11:48:30;;;;;;;28.00;25.08;;;25.60;69.60;;;;;;4958681;28;20050;-75
2023/09/02 11:51:00;;;;;;;27.35;24.08;;;25.30;70.70;;;;;;4961191;28;20080;-76
2023/09/02 11:53:30;;;;;;;31.48;28.05;;;25.10;71.60;;;;;;4956838;28;20080;-75
2023/09/02 11:55:56;;;;;;;36.03;32.13;;;25.00;73.10;;;;;;4970923;28;20489;-77
2023/09/02 11:58:22;;;;;;;31.65;28.30;;;24.80;73.00;;;;;;4956134;28;20042;-77
2023/09/02 12:00:48;;;;;;;28.45;25.25;;;24.70;73.70;;;;;;4964088;28;20038;-78
2023/09/02 12:03:19;;;;;;;28.38;25.27;;;24.90;73.20;;;;;;4966495;28;20035;-77
2023/09/02 12:05:57;;;;;;;25.48;22.70;;;24.90;72.80;;;;;;4960839;28;20050;-76
2023/09/02 12:08:23;;;;;;;18.52;15.57;;;25.10;71.50;;;;;;4957420;28;20039;-78
2023/09/02 12:10:49;;;;;;;20.17;16.88;;;25.50;70.30;;;;;;4959123;28;20031;-77
2023/09/02 12:13:15;;;;;;;20.38;16.90;;;25.60;69.30;;;;;;4970196;28;20114;-76
2023/09/02 12:15:42;;;;;;;18.50;16.35;;;25.80;69.60;;;;;;4960346;28;20031;-76
2023/09/02 12:18:08;;;;;;;17.10;14.10;;;26.10;67.80;;;;;;4957771;28;20051;-75
2023/09/02 12:20:33;;;;;;;17.38;14.10;;;26.30;67.30;;;;;;4961461;28;20034;-77
2023/09/02 12:22:59;;;;;;;19.00;16.67;;;26.50;65.40;;;;;;4966157;28;20035;-78
2023/09/02 12:25:26;;;;;;;21.27;18.80;;;26.80;65.80;;;;;;4958248;28;20058;-75
2023/09/02 12:28:07;;;;;;;25.38;20.02;;;26.60;65.80;;;;;;4955699;28;20058;-76
2023/09/02 12:30:33;;;;;;;18.70;16.70;;;26.80;66.30;;;;;;4957991;28;21533;-76